sensor_id;sensor_type;location;lat;lon;timestamp;temperature;humidity
11961;DHT22;6040;49.358;11.140;2023-05-10T00:01:15;14.80;99.90
11961;DHT22;6040;49.358;11.140;2023-05-10T00:03:42;14.80;99.90
11961;DHT22;6040;49.358;11.140;2023-05-10T00:06:09;14.80;99.90
11961;DHT22;6040;49.358;11.140;2023-05-10T00:08:35;14.40;99.90
11961;DHT22;6040;49.358;11.140;2023-05-10T00:11:02;14.70;99.90
11961;DHT22;6040;49.358;11.140;2023-05-10T00:13:29;14.70;99.90
11961;DHT22;6040;49.358;11.140;2023-05-10T00:15:57;14.50;99.90
11961;DHT22;6040;49.358;11.140;2023-05-10T00:18:24;14.60;99.90
11961;DHT22;6040;49.358;11.140;2023-05-10T00:20:51;14.60;99.90
11961;DHT22;6040;49.358;11.140;2023-05-10T00:23:18;14.50;99.90
11961;DHT22;6040;49.358;11.140;2023-05-10T00:25:44;14.40;99.90
11961;DHT22;6040;49.358;11.140;2023-05-10T00:28:11;14.30;99.90
11961;DHT22;6040;49.358;11.140;2023-05-10T00:30:38;14.50;99.90
11961;DHT22;6040;49.358;11.140;2023-05-10T00:33:06;14.10;99.90
11961;DHT22;6040;49.358;11.140;2023-05-10T00:35:33;14.40;99.90
11961;DHT22;6040;49.358;11.140;2023-05-10T00:38:00;14.40;99.90
11961;DHT22;6040;49.358;11.140;2023-05-10T00:40:26;14.20;99.90
11961;DHT22;6040;49.358;11.140;2023-05-10T00:42:54;14.30;99.90
11961;DHT22;6040;49.358;11.140;2023-05-10T00:45:21;14.20;99.90
11961;DHT22;6040;49.358;11.140;2023-05-10T00:47:47;15.60;99.90
11961;DHT22;6040;49.358;11.140;2023-05-10T00:50:16;14.20;99.90
11961;DHT22;6040;49.358;11.140;2023-05-10T00:52:43;14.20;99.90
11961;DHT22;6040;49.358;11.140;2023-05-10T00:55:10;14.50;99.90
11961;DHT22;6040;49.358;11.140;2023-05-10T00:57:38;14.20;99.90
11961;DHT22;6040;49.358;11.140;2023-05-10T01:00:06;14.10;99.90
11961;DHT22;6040;49.358;11.140;2023-05-10T01:02:33;14.00;99.90
11961;DHT22;6040;49.358;11.140;2023-05-10T01:05:02;13.90;99.90
11961;DHT22;6040;49.358;11.140;2023-05-10T01:07:30;13.90;99.90
11961;DHT22;6040;49.358;11.140;2023-05-10T01:09:57;13.80;99.90
11961;DHT22;6040;49.358;11.140;2023-05-10T01:12:25;15.20;99.90
11961;DHT22;6040;49.358;11.140;2023-05-10T01:14:52;13.90;99.90
11961;DHT22;6040;49.358;11.140;2023-05-10T01:17:19;13.80;99.90
11961;DHT22;6040;49.358;11.140;2023-05-10T01:19:47;13.80;99.90
11961;DHT22;6040;49.358;11.140;2023-05-10T01:22:39;13.90;99.90
11961;DHT22;6040;49.358;11.140;2023-05-10T01:25:28;13.90;99.90
11961;DHT22;6040;49.358;11.140;2023-05-10T01:28:29;13.90;99.90
11961;DHT22;6040;49.358;11.140;2023-05-10T01:31:18;13.90;99.90
11961;DHT22;6040;49.358;11.140;2023-05-10T01:33:53;14.00;99.90
11961;DHT22;6040;49.358;11.140;2023-05-10T01:36:26;14.00;99.90
11961;DHT22;6040;49.358;11.140;2023-05-10T01:39:01;14.40;99.90
11961;DHT22;6040;49.358;11.140;2023-05-10T01:41:34;14.10;99.90
11961;DHT22;6040;49.358;11.140;2023-05-10T01:44:10;13.90;99.90
11961;DHT22;6040;49.358;11.140;2023-05-10T01:46:39;13.90;99.90
11961;DHT22;6040;49.358;11.140;2023-05-10T01:49:10;13.70;99.90
11961;DHT22;6040;49.358;11.140;2023-05-10T01:51:42;13.80;99.90
11961;DHT22;6040;49.358;11.140;2023-05-10T01:54:13;13.70;99.90
11961;DHT22;6040;49.358;11.140;2023-05-10T01:56:41;13.70;99.90
11961;DHT22;6040;49.358;11.140;2023-05-10T01:59:12;13.70;99.90
11961;DHT22;6040;49.358;11.140;2023-05-10T02:01:40;13.70;99.90
11961;DHT22;6040;49.358;11.140;2023-05-10T02:04:09;13.80;99.90
11961;DHT22;6040;49.358;11.140;2023-05-10T02:06:38;13.50;99.90
11961;DHT22;6040;49.358;11.140;2023-05-10T02:09:06;13.80;99.90
11961;DHT22;6040;49.358;11.140;2023-05-10T02:11:34;13.70;99.90
11961;DHT22;6040;49.358;11.140;2023-05-10T02:14:03;13.70;99.90
11961;DHT22;6040;49.358;11.140;2023-05-10T02:16:32;13.70;99.90
11961;DHT22;6040;49.358;11.140;2023-05-10T02:19:02;13.70;99.90
11961;DHT22;6040;49.358;11.140;2023-05-10T02:21:31;14.30;99.90
11961;DHT22;6040;49.358;11.140;2023-05-10T02:24:00;13.60;99.90
11961;DHT22;6040;49.358;11.140;2023-05-10T02:26:28;13.90;99.90
11961;DHT22;6040;49.358;11.140;2023-05-10T02:28:57;13.90;99.90
11961;DHT22;6040;49.358;11.140;2023-05-10T02:31:25;13.90;99.90
11961;DHT22;6040;49.358;11.140;2023-05-10T02:33:53;13.90;99.90
11961;DHT22;6040;49.358;11.140;2023-05-10T02:36:21;13.90;99.90
11961;DHT22;6040;49.358;11.140;2023-05-10T02:38:50;13.80;99.90
11961;DHT22;6040;49.358;11.140;2023-05-10T02:41:18;13.80;99.90
11961;DHT22;6040;49.358;11.140;2023-05-10T02:43:47;13.80;99.90
11961;DHT22;6040;49.358;11.140;2023-05-10T02:46:15;13.90;99.90
11961;DHT22;6040;49.358;11.140;2023-05-10T02:48:42;13.80;99.90
11961;DHT22;6040;49.358;11.140;2023-05-10T02:51:12;13.80;99.90
11961;DHT22;6040;49.358;11.140;2023-05-10T02:53:44;13.80;99.90
11961;DHT22;6040;49.358;11.140;2023-05-10T02:56:16;13.80;99.90
11961;DHT22;6040;49.358;11.140;2023-05-10T02:58:46;13.90;99.90
11961;DHT22;6040;49.358;11.140;2023-05-10T03:01:12;13.80;99.90
11961;DHT22;6040;49.358;11.140;2023-05-10T03:03:39;13.80;99.90
11961;DHT22;6040;49.358;11.140;2023-05-10T03:06:06;13.80;99.90
11961;DHT22;6040;49.358;11.140;2023-05-10T03:08:33;13.90;99.90
11961;DHT22;6040;49.358;11.140;2023-05-10T03:11:15;14.10;99.90
11961;DHT22;6040;49.358;11.140;2023-05-10T03:13:52;13.80;99.90
11961;DHT22;6040;49.358;11.140;2023-05-10T03:16:27;13.90;99.90
11961;DHT22;6040;49.358;11.140;2023-05-10T03:19:01;13.90;99.90
11961;DHT22;6040;49.358;11.140;2023-05-10T03:21:33;13.90;99.90
11961;DHT22;6040;49.358;11.140;2023-05-10T03:24:08;13.80;99.90
11961;DHT22;6040;49.358;11.140;2023-05-10T03:26:38;14.00;99.90
11961;DHT22;6040;49.358;11.140;2023-05-10T03:29:06;13.90;99.90
11961;DHT22;6040;49.358;11.140;2023-05-10T03:31:34;13.90;99.90
11961;DHT22;6040;49.358;11.140;2023-05-10T03:34:01;13.90;99.90
11961;DHT22;6040;49.358;11.140;2023-05-10T03:36:28;13.90;99.90
11961;DHT22;6040;49.358;11.140;2023-05-10T03:38:54;14.60;99.90
11961;DHT22;6040;49.358;11.140;2023-05-10T03:41:21;13.90;99.90
11961;DHT22;6040;49.358;11.140;2023-05-10T03:43:49;13.90;99.90
11961;DHT22;6040;49.358;11.140;2023-05-10T03:46:16;13.60;99.90
11961;DHT22;6040;49.358;11.140;2023-05-10T03:48:43;14.30;99.90
11961;DHT22;6040;49.358;11.140;2023-05-10T03:51:10;13.90;99.90
11961;DHT22;6040;49.358;11.140;2023-05-10T03:53:37;13.80;99.90
11961;DHT22;6040;49.358;11.140;2023-05-10T03:56:04;14.10;99.90
11961;DHT22;6040;49.358;11.140;2023-05-10T03:58:30;13.90;99.90
11961;DHT22;6040;49.358;11.140;2023-05-10T04:00:59;13.90;99.90
11961;DHT22;6040;49.358;11.140;2023-05-10T04:03:25;13.90;99.90
11961;DHT22;6040;49.358;11.140;2023-05-10T04:05:58;13.80;99.90
11961;DHT22;6040;49.358;11.140;2023-05-10T04:08:25;13.70;99.90
11961;DHT22;6040;49.358;11.140;2023-05-10T04:10:52;13.80;99.90
11961;DHT22;6040;49.358;11.140;2023-05-10T04:13:19;14.90;99.90
11961;DHT22;6040;49.358;11.140;2023-05-10T04:15:46;15.20;99.90
11961;DHT22;6040;49.358;11.140;2023-05-10T04:18:14;14.70;99.90
11961;DHT22;6040;49.358;11.140;2023-05-10T04:20:42;13.80;99.90
11961;DHT22;6040;49.358;11.140;2023-05-10T04:23:09;13.80;99.90
11961;DHT22;6040;49.358;11.140;2023-05-10T04:25:36;14.00;99.90
11961;DHT22;6040;49.358;11.140;2023-05-10T04:28:03;13.80;99.90
11961;DHT22;6040;49.358;11.140;2023-05-10T04:30:30;13.80;99.90
11961;DHT22;6040;49.358;11.140;2023-05-10T04:32:56;13.80;99.90
11961;DHT22;6040;49.358;11.140;2023-05-10T04:35:25;13.70;99.90
11961;DHT22;6040;49.358;11.140;2023-05-10T04:37:51;13.80;99.90
11961;DHT22;6040;49.358;11.140;2023-05-10T04:40:18;13.80;99.90
11961;DHT22;6040;49.358;11.140;2023-05-10T04:42:46;13.80;99.90
11961;DHT22;6040;49.358;11.140;2023-05-10T04:45:14;13.90;99.90
11961;DHT22;6040;49.358;11.140;2023-05-10T04:47:41;13.80;99.90
11961;DHT22;6040;49.358;11.140;2023-05-10T04:50:08;13.80;99.90
11961;DHT22;6040;49.358;11.140;2023-05-10T04:52:37;13.80;99.90
11961;DHT22;6040;49.358;11.140;2023-05-10T04:55:04;13.70;99.90
11961;DHT22;6040;49.358;11.140;2023-05-10T04:57:33;13.80;99.90
11961;DHT22;6040;49.358;11.140;2023-05-10T05:00:00;13.80;99.90
11961;DHT22;6040;49.358;11.140;2023-05-10T05:02:27;13.80;99.90
11961;DHT22;6040;49.358;11.140;2023-05-10T05:04:55;13.70;99.90
11961;DHT22;6040;49.358;11.140;2023-05-10T05:07:23;13.80;99.90
11961;DHT22;6040;49.358;11.140;2023-05-10T05:09:51;13.90;99.90
11961;DHT22;6040;49.358;11.140;2023-05-10T05:12:18;14.00;99.90
11961;DHT22;6040;49.358;11.140;2023-05-10T05:14:44;13.20;99.90
11961;DHT22;6040;49.358;11.140;2023-05-10T05:17:11;13.90;99.90
11961;DHT22;6040;49.358;11.140;2023-05-10T05:19:38;14.00;99.90
11961;DHT22;6040;49.358;11.140;2023-05-10T05:22:06;14.00;99.90
11961;DHT22;6040;49.358;11.140;2023-05-10T05:24:35;14.00;99.90
11961;DHT22;6040;49.358;11.140;2023-05-10T05:27:04;13.90;99.90
11961;DHT22;6040;49.358;11.140;2023-05-10T05:29:31;13.90;99.90
11961;DHT22;6040;49.358;11.140;2023-05-10T05:31:58;13.90;99.90
11961;DHT22;6040;49.358;11.140;2023-05-10T05:34:25;13.90;99.90
11961;DHT22;6040;49.358;11.140;2023-05-10T05:36:51;14.00;99.90
11961;DHT22;6040;49.358;11.140;2023-05-10T05:39:19;14.10;99.90
11961;DHT22;6040;49.358;11.140;2023-05-10T05:41:46;14.20;99.90
11961;DHT22;6040;49.358;11.140;2023-05-10T05:44:14;14.30;99.90
11961;DHT22;6040;49.358;11.140;2023-05-10T05:46:41;14.30;99.90
11961;DHT22;6040;49.358;11.140;2023-05-10T05:49:08;15.60;99.90
11961;DHT22;6040;49.358;11.140;2023-05-10T05:51:35;14.40;99.90
11961;DHT22;6040;49.358;11.140;2023-05-10T05:54:02;14.30;99.90
11961;DHT22;6040;49.358;11.140;2023-05-10T05:56:30;14.50;99.90
11961;DHT22;6040;49.358;11.140;2023-05-10T05:58:56;14.30;99.90
11961;DHT22;6040;49.358;11.140;2023-05-10T06:01:24;14.40;99.90
11961;DHT22;6040;49.358;11.140;2023-05-10T06:03:51;14.40;99.90
11961;DHT22;6040;49.358;11.140;2023-05-10T06:06:18;14.50;99.90
11961;DHT22;6040;49.358;11.140;2023-05-10T06:08:45;14.80;99.90
11961;DHT22;6040;49.358;11.140;2023-05-10T06:11:11;14.40;99.90
11961;DHT22;6040;49.358;11.140;2023-05-10T06:13:38;14.70;99.90
11961;DHT22;6040;49.358;11.140;2023-05-10T06:16:06;14.80;99.90
11961;DHT22;6040;49.358;11.140;2023-05-10T06:18:34;14.90;99.90
11961;DHT22;6040;49.358;11.140;2023-05-10T06:21:01;15.10;99.90
11961;DHT22;6040;49.358;11.140;2023-05-10T06:23:28;15.00;99.90
11961;DHT22;6040;49.358;11.140;2023-05-10T06:25:55;15.10;99.90
11961;DHT22;6040;49.358;11.140;2023-05-10T06:28:21;15.10;99.90
11961;DHT22;6040;49.358;11.140;2023-05-10T06:30:48;15.80;99.90
11961;DHT22;6040;49.358;11.140;2023-05-10T06:33:15;16.20;99.90
11961;DHT22;6040;49.358;11.140;2023-05-10T06:35:43;15.10;99.90
11961;DHT22;6040;49.358;11.140;2023-05-10T06:38:10;15.20;99.90
11961;DHT22;6040;49.358;11.140;2023-05-10T06:40:41;15.50;99.90
11961;DHT22;6040;49.358;11.140;2023-05-10T06:43:08;15.80;99.90
11961;DHT22;6040;49.358;11.140;2023-05-10T06:45:34;15.60;99.90
11961;DHT22;6040;49.358;11.140;2023-05-10T06:48:01;15.60;99.90
11961;DHT22;6040;49.358;11.140;2023-05-10T06:50:28;15.60;99.90
11961;DHT22;6040;49.358;11.140;2023-05-10T06:52:56;16.10;99.90
11961;DHT22;6040;49.358;11.140;2023-05-10T06:55:23;15.70;99.90
11961;DHT22;6040;49.358;11.140;2023-05-10T06:57:50;15.90;99.90
11961;DHT22;6040;49.358;11.140;2023-05-10T07:00:18;15.70;99.90
11961;DHT22;6040;49.358;11.140;2023-05-10T07:02:45;15.70;99.90
11961;DHT22;6040;49.358;11.140;2023-05-10T07:05:12;15.60;99.90
11961;DHT22;6040;49.358;11.140;2023-05-10T07:07:39;15.50;99.90
11961;DHT22;6040;49.358;11.140;2023-05-10T07:10:08;15.60;99.90
11961;DHT22;6040;49.358;11.140;2023-05-10T07:12:36;15.60;99.90
11961;DHT22;6040;49.358;11.140;2023-05-10T07:15:04;16.20;99.90
11961;DHT22;6040;49.358;11.140;2023-05-10T07:17:31;15.50;99.90
11961;DHT22;6040;49.358;11.140;2023-05-10T07:19:58;15.50;99.90
11961;DHT22;6040;49.358;11.140;2023-05-10T07:22:25;15.50;99.90
11961;DHT22;6040;49.358;11.140;2023-05-10T07:24:52;15.40;99.90
11961;DHT22;6040;49.358;11.140;2023-05-10T07:27:20;15.40;99.90
11961;DHT22;6040;49.358;11.140;2023-05-10T07:29:47;15.70;99.90
11961;DHT22;6040;49.358;11.140;2023-05-10T07:32:14;15.20;99.90
11961;DHT22;6040;49.358;11.140;2023-05-10T07:34:41;15.30;99.90
11961;DHT22;6040;49.358;11.140;2023-05-10T07:37:08;15.50;99.90
11961;DHT22;6040;49.358;11.140;2023-05-10T07:39:35;15.30;99.90
11961;DHT22;6040;49.358;11.140;2023-05-10T07:42:03;15.30;99.90
11961;DHT22;6040;49.358;11.140;2023-05-10T07:44:31;15.40;99.90
11961;DHT22;6040;49.358;11.140;2023-05-10T07:46:58;15.30;99.90
11961;DHT22;6040;49.358;11.140;2023-05-10T07:49:25;15.40;99.90
11961;DHT22;6040;49.358;11.140;2023-05-10T07:51:52;15.40;99.90
11961;DHT22;6040;49.358;11.140;2023-05-10T07:54:19;15.40;99.90
11961;DHT22;6040;49.358;11.140;2023-05-10T07:56:46;15.50;99.90
11961;DHT22;6040;49.358;11.140;2023-05-10T07:59:16;15.40;99.90
11961;DHT22;6040;49.358;11.140;2023-05-10T08:01:44;15.70;99.90
11961;DHT22;6040;49.358;11.140;2023-05-10T08:04:11;15.70;99.90
11961;DHT22;6040;49.358;11.140;2023-05-10T08:06:38;15.80;99.90
11961;DHT22;6040;49.358;11.140;2023-05-10T08:09:05;15.80;99.90
11961;DHT22;6040;49.358;11.140;2023-05-10T08:11:32;15.90;99.90
11961;DHT22;6040;49.358;11.140;2023-05-10T08:13:59;15.90;99.90
11961;DHT22;6040;49.358;11.140;2023-05-10T08:16:26;16.00;99.90
11961;DHT22;6040;49.358;11.140;2023-05-10T08:18:54;16.40;99.90
11961;DHT22;6040;49.358;11.140;2023-05-10T08:21:21;16.30;99.90
11961;DHT22;6040;49.358;11.140;2023-05-10T08:23:48;16.30;99.90
11961;DHT22;6040;49.358;11.140;2023-05-10T08:26:15;16.50;99.90
11961;DHT22;6040;49.358;11.140;2023-05-10T08:28:42;16.60;99.90
11961;DHT22;6040;49.358;11.140;2023-05-10T08:31:09;16.80;99.90
11961;DHT22;6040;49.358;11.140;2023-05-10T08:33:35;17.10;99.90
11961;DHT22;6040;49.358;11.140;2023-05-10T08:36:04;17.30;99.90
11961;DHT22;6040;49.358;11.140;2023-05-10T08:38:31;17.40;99.90
11961;DHT22;6040;49.358;11.140;2023-05-10T08:40:58;17.80;99.90
11961;DHT22;6040;49.358;11.140;2023-05-10T08:43:27;18.50;99.90
11961;DHT22;6040;49.358;11.140;2023-05-10T08:45:55;18.40;99.90
11961;DHT22;6040;49.358;11.140;2023-05-10T08:48:24;18.50;99.90
11961;DHT22;6040;49.358;11.140;2023-05-10T08:50:53;18.80;99.90
11961;DHT22;6040;49.358;11.140;2023-05-10T08:53:24;19.10;99.90
11961;DHT22;6040;49.358;11.140;2023-05-10T08:55:53;19.00;99.90
11961;DHT22;6040;49.358;11.140;2023-05-10T08:58:20;18.80;99.90
11961;DHT22;6040;49.358;11.140;2023-05-10T09:00:49;18.70;99.90
11961;DHT22;6040;49.358;11.140;2023-05-10T09:03:18;18.50;99.90
11961;DHT22;6040;49.358;11.140;2023-05-10T09:05:45;18.60;99.90
11961;DHT22;6040;49.358;11.140;2023-05-10T09:08:12;18.60;99.90
11961;DHT22;6040;49.358;11.140;2023-05-10T09:10:42;18.50;99.90
11961;DHT22;6040;49.358;11.140;2023-05-10T09:13:10;18.30;99.90
11961;DHT22;6040;49.358;11.140;2023-05-10T09:15:38;18.00;99.90
11961;DHT22;6040;49.358;11.140;2023-05-10T09:18:05;17.70;99.90
11961;DHT22;6040;49.358;11.140;2023-05-10T09:20:32;17.70;99.90
11961;DHT22;6040;49.358;11.140;2023-05-10T09:22:58;17.70;99.90
11961;DHT22;6040;49.358;11.140;2023-05-10T09:25:25;17.60;99.90
11961;DHT22;6040;49.358;11.140;2023-05-10T09:27:53;17.90;99.90
11961;DHT22;6040;49.358;11.140;2023-05-10T09:30:25;17.90;99.90
11961;DHT22;6040;49.358;11.140;2023-05-10T09:32:52;17.90;99.90
11961;DHT22;6040;49.358;11.140;2023-05-10T09:35:21;17.50;99.90
11961;DHT22;6040;49.358;11.140;2023-05-10T09:37:51;17.80;99.90
11961;DHT22;6040;49.358;11.140;2023-05-10T09:40:20;18.10;99.90
11961;DHT22;6040;49.358;11.140;2023-05-10T09:42:54;17.70;99.90
11961;DHT22;6040;49.358;11.140;2023-05-10T09:45:21;18.40;99.90
11961;DHT22;6040;49.358;11.140;2023-05-10T09:47:48;19.00;99.90
11961;DHT22;6040;49.358;11.140;2023-05-10T09:50:15;19.70;99.90
11961;DHT22;6040;49.358;11.140;2023-05-10T09:52:49;20.20;99.90
11961;DHT22;6040;49.358;11.140;2023-05-10T09:55:18;20.70;99.90
11961;DHT22;6040;49.358;11.140;2023-05-10T09:57:45;20.70;99.90
11961;DHT22;6040;49.358;11.140;2023-05-10T10:00:17;20.70;99.80
11961;DHT22;6040;49.358;11.140;2023-05-10T10:02:46;20.40;99.90
11961;DHT22;6040;49.358;11.140;2023-05-10T10:05:15;20.50;99.90
11961;DHT22;6040;49.358;11.140;2023-05-10T10:07:41;20.20;99.90
11961;DHT22;6040;49.358;11.140;2023-05-10T10:10:09;20.10;99.90
11961;DHT22;6040;49.358;11.140;2023-05-10T10:12:39;19.90;99.90
11961;DHT22;6040;49.358;11.140;2023-05-10T10:15:07;19.80;99.90
11961;DHT22;6040;49.358;11.140;2023-05-10T10:17:36;19.90;99.90
11961;DHT22;6040;49.358;11.140;2023-05-10T10:20:05;19.50;99.90
11961;DHT22;6040;49.358;11.140;2023-05-10T10:22:33;19.40;99.90
11961;DHT22;6040;49.358;11.140;2023-05-10T10:25:00;19.40;99.90
11961;DHT22;6040;49.358;11.140;2023-05-10T10:27:35;19.20;99.90
11961;DHT22;6040;49.358;11.140;2023-05-10T10:30:16;19.00;99.90
11961;DHT22;6040;49.358;11.140;2023-05-10T10:33:01;19.90;99.90
11961;DHT22;6040;49.358;11.140;2023-05-10T10:35:34;18.80;99.90
11961;DHT22;6040;49.358;11.140;2023-05-10T10:38:01;18.60;99.90
11961;DHT22;6040;49.358;11.140;2023-05-10T10:40:29;18.50;99.90
11961;DHT22;6040;49.358;11.140;2023-05-10T10:42:57;18.40;99.90
11961;DHT22;6040;49.358;11.140;2023-05-10T10:45:25;18.30;99.90
11961;DHT22;6040;49.358;11.140;2023-05-10T10:48:22;18.10;99.90
11961;DHT22;6040;49.358;11.140;2023-05-10T10:50:56;18.10;99.90
11961;DHT22;6040;49.358;11.140;2023-05-10T10:53:26;18.20;99.90
11961;DHT22;6040;49.358;11.140;2023-05-10T10:56:04;18.20;99.90
11961;DHT22;6040;49.358;11.140;2023-05-10T10:58:33;18.20;99.90
11961;DHT22;6040;49.358;11.140;2023-05-10T11:01:16;18.30;99.90
11961;DHT22;6040;49.358;11.140;2023-05-10T11:07:17;18.60;99.90
11961;DHT22;6040;49.358;11.140;2023-05-10T11:09:46;18.80;99.90
11961;DHT22;6040;49.358;11.140;2023-05-10T11:12:14;18.50;99.90
11961;DHT22;6040;49.358;11.140;2023-05-10T11:14:41;18.50;99.90
11961;DHT22;6040;49.358;11.140;2023-05-10T11:17:24;18.50;99.90
11961;DHT22;6040;49.358;11.140;2023-05-10T11:20:09;18.50;99.90
11961;DHT22;6040;49.358;11.140;2023-05-10T11:22:51;18.60;99.90
11961;DHT22;6040;49.358;11.140;2023-05-10T11:25:18;18.90;99.90
11961;DHT22;6040;49.358;11.140;2023-05-10T11:27:47;18.90;99.90
11961;DHT22;6040;49.358;11.140;2023-05-10T11:30:15;19.10;99.90
11961;DHT22;6040;49.358;11.140;2023-05-10T11:32:41;18.90;99.70
11961;DHT22;6040;49.358;11.140;2023-05-10T11:35:09;18.80;99.90
11961;DHT22;6040;49.358;11.140;2023-05-10T11:37:36;18.90;99.90
11961;DHT22;6040;49.358;11.140;2023-05-10T11:40:08;19.20;99.90
11961;DHT22;6040;49.358;11.140;2023-05-10T11:42:36;19.00;99.80
11961;DHT22;6040;49.358;11.140;2023-05-10T11:45:04;19.00;99.90
11961;DHT22;6040;49.358;11.140;2023-05-10T11:47:31;18.70;99.90
11961;DHT22;6040;49.358;11.140;2023-05-10T11:50:01;18.50;99.90
11961;DHT22;6040;49.358;11.140;2023-05-10T11:52:27;18.50;99.90
11961;DHT22;6040;49.358;11.140;2023-05-10T11:54:55;18.60;99.90
11961;DHT22;6040;49.358;11.140;2023-05-10T11:57:26;18.10;99.90
11961;DHT22;6040;49.358;11.140;2023-05-10T11:59:53;18.60;99.90
11961;DHT22;6040;49.358;11.140;2023-05-10T12:02:20;18.30;99.90
11961;DHT22;6040;49.358;11.140;2023-05-10T12:04:47;18.50;99.90
11961;DHT22;6040;49.358;11.140;2023-05-10T12:07:14;18.60;99.90
11961;DHT22;6040;49.358;11.140;2023-05-10T12:09:42;18.80;99.90
11961;DHT22;6040;49.358;11.140;2023-05-10T12:12:10;18.60;99.90
11961;DHT22;6040;49.358;11.140;2023-05-10T12:14:38;18.60;99.90
11961;DHT22;6040;49.358;11.140;2023-05-10T12:17:04;18.70;99.90
11961;DHT22;6040;49.358;11.140;2023-05-10T12:19:37;18.80;99.90
11961;DHT22;6040;49.358;11.140;2023-05-10T12:22:05;18.80;99.90
11961;DHT22;6040;49.358;11.140;2023-05-10T12:24:34;18.50;99.90
11961;DHT22;6040;49.358;11.140;2023-05-10T12:27:04;18.50;99.90
11961;DHT22;6040;49.358;11.140;2023-05-10T12:29:32;18.30;99.90
11961;DHT22;6040;49.358;11.140;2023-05-10T12:32:00;18.40;99.90
11961;DHT22;6040;49.358;11.140;2023-05-10T12:34:31;18.40;99.90
11961;DHT22;6040;49.358;11.140;2023-05-10T12:36:58;18.50;99.90
11961;DHT22;6040;49.358;11.140;2023-05-10T12:39:25;18.50;99.90
11961;DHT22;6040;49.358;11.140;2023-05-10T12:41:52;18.40;99.90
11961;DHT22;6040;49.358;11.140;2023-05-10T12:44:19;18.40;99.90
11961;DHT22;6040;49.358;11.140;2023-05-10T12:46:46;18.30;99.90
11961;DHT22;6040;49.358;11.140;2023-05-10T12:49:14;18.20;99.90
11961;DHT22;6040;49.358;11.140;2023-05-10T12:51:42;18.30;99.80
11961;DHT22;6040;49.358;11.140;2023-05-10T12:54:09;18.40;99.50
11961;DHT22;6040;49.358;11.140;2023-05-10T12:56:35;18.30;99.90
11961;DHT22;6040;49.358;11.140;2023-05-10T12:59:03;17.90;99.90
11961;DHT22;6040;49.358;11.140;2023-05-10T13:01:30;17.80;99.90
11961;DHT22;6040;49.358;11.140;2023-05-10T13:03:56;17.80;99.90
11961;DHT22;6040;49.358;11.140;2023-05-10T13:06:25;18.00;99.90
11961;DHT22;6040;49.358;11.140;2023-05-10T13:08:51;18.10;99.90
11961;DHT22;6040;49.358;11.140;2023-05-10T13:11:18;18.30;99.90
11961;DHT22;6040;49.358;11.140;2023-05-10T13:13:45;18.30;99.90
11961;DHT22;6040;49.358;11.140;2023-05-10T13:16:12;18.20;99.90
11961;DHT22;6040;49.358;11.140;2023-05-10T13:18:39;18.20;99.90
11961;DHT22;6040;49.358;11.140;2023-05-10T13:21:05;18.30;99.90
11961;DHT22;6040;49.358;11.140;2023-05-10T13:23:34;18.40;99.90
11961;DHT22;6040;49.358;11.140;2023-05-10T13:26:01;18.50;99.90
11961;DHT22;6040;49.358;11.140;2023-05-10T13:28:27;18.60;99.90
11961;DHT22;6040;49.358;11.140;2023-05-10T13:30:55;18.80;99.90
11961;DHT22;6040;49.358;11.140;2023-05-10T13:33:22;18.60;99.90
11961;DHT22;6040;49.358;11.140;2023-05-10T13:35:49;18.70;99.90
11961;DHT22;6040;49.358;11.140;2023-05-10T13:38:16;18.80;99.90
11961;DHT22;6040;49.358;11.140;2023-05-10T13:40:44;18.80;99.90
11961;DHT22;6040;49.358;11.140;2023-05-10T13:43:11;18.70;99.90
11961;DHT22;6040;49.358;11.140;2023-05-10T13:45:37;18.80;99.90
11961;DHT22;6040;49.358;11.140;2023-05-10T13:48:05;18.80;99.90
11961;DHT22;6040;49.358;11.140;2023-05-10T13:50:32;18.90;99.90
11961;DHT22;6040;49.358;11.140;2023-05-10T13:52:59;18.90;99.90
11961;DHT22;6040;49.358;11.140;2023-05-10T13:55:25;18.90;99.90
11961;DHT22;6040;49.358;11.140;2023-05-10T13:57:53;19.10;99.90
11961;DHT22;6040;49.358;11.140;2023-05-10T14:00:20;19.10;99.90
11961;DHT22;6040;49.358;11.140;2023-05-10T14:02:48;19.20;99.90
11961;DHT22;6040;49.358;11.140;2023-05-10T14:05:15;19.10;99.90
11961;DHT22;6040;49.358;11.140;2023-05-10T14:07:41;19.10;99.90
11961;DHT22;6040;49.358;11.140;2023-05-10T14:10:09;18.90;99.90
11961;DHT22;6040;49.358;11.140;2023-05-10T14:12:36;19.00;99.90
11961;DHT22;6040;49.358;11.140;2023-05-10T14:15:05;18.90;99.90
11961;DHT22;6040;49.358;11.140;2023-05-10T14:17:32;18.80;99.90
11961;DHT22;6040;49.358;11.140;2023-05-10T14:19:58;18.80;99.90
11961;DHT22;6040;49.358;11.140;2023-05-10T14:22:25;19.00;99.90
11961;DHT22;6040;49.358;11.140;2023-05-10T14:24:52;18.60;99.90
11961;DHT22;6040;49.358;11.140;2023-05-10T14:27:19;18.50;99.90
11961;DHT22;6040;49.358;11.140;2023-05-10T14:29:46;18.50;99.90
11961;DHT22;6040;49.358;11.140;2023-05-10T14:32:14;18.60;99.60
11961;DHT22;6040;49.358;11.140;2023-05-10T14:34:41;18.60;98.90
11961;DHT22;6040;49.358;11.140;2023-05-10T14:37:10;18.50;98.60
11961;DHT22;6040;49.358;11.140;2023-05-10T14:39:37;18.60;98.60
11961;DHT22;6040;49.358;11.140;2023-05-10T14:42:04;18.50;99.00
11961;DHT22;6040;49.358;11.140;2023-05-10T14:44:31;18.50;99.20
11961;DHT22;6040;49.358;11.140;2023-05-10T14:46:58;18.60;99.20
11961;DHT22;6040;49.358;11.140;2023-05-10T14:49:26;18.80;99.90
11961;DHT22;6040;49.358;11.140;2023-05-10T14:51:53;18.80;99.30
11961;DHT22;6040;49.358;11.140;2023-05-10T14:54:20;18.80;99.40
11961;DHT22;6040;49.358;11.140;2023-05-10T14:56:47;18.80;99.40
11961;DHT22;6040;49.358;11.140;2023-05-10T14:59:15;18.80;99.90
11961;DHT22;6040;49.358;11.140;2023-05-10T15:01:42;19.00;99.90
11961;DHT22;6040;49.358;11.140;2023-05-10T15:04:08;18.90;99.80
11961;DHT22;6040;49.358;11.140;2023-05-10T15:06:37;19.00;99.70
11961;DHT22;6040;49.358;11.140;2023-05-10T15:09:04;19.00;99.50
11961;DHT22;6040;49.358;11.140;2023-05-10T15:11:31;19.00;99.90
11961;DHT22;6040;49.358;11.140;2023-05-10T15:13:58;19.20;99.90
11961;DHT22;6040;49.358;11.140;2023-05-10T15:16:25;19.20;99.70
11961;DHT22;6040;49.358;11.140;2023-05-10T15:18:52;19.00;99.50
11961;DHT22;6040;49.358;11.140;2023-05-10T15:21:18;19.00;99.90
11961;DHT22;6040;49.358;11.140;2023-05-10T15:23:47;19.10;99.90
11961;DHT22;6040;49.358;11.140;2023-05-10T15:26:13;18.90;99.60
11961;DHT22;6040;49.358;11.140;2023-05-10T15:28:40;18.50;99.90
11961;DHT22;6040;49.358;11.140;2023-05-10T15:31:07;18.20;99.90
11961;DHT22;6040;49.358;11.140;2023-05-10T15:33:34;18.20;99.90
11961;DHT22;6040;49.358;11.140;2023-05-10T15:36:00;18.20;99.90
11961;DHT22;6040;49.358;11.140;2023-05-10T15:38:29;17.90;99.90
11961;DHT22;6040;49.358;11.140;2023-05-10T15:40:58;17.80;99.90